sensor_id;sensor_type;location;lat;lon;timestamp;pressure;altitude;pressure_sealevel;temperature;humidity
79577;BME280;69045;48.136;11.386;2023-05-07T00:00:12;95281.50;;;16.20;67.50
79577;BME280;69045;48.136;11.386;2023-05-07T00:02:42;95274.06;;;16.17;67.59
79577;BME280;69045;48.136;11.386;2023-05-07T00:05:13;95278.06;;;16.20;67.06
79577;BME280;69045;48.136;11.386;2023-05-07T00:07:42;95279.94;;;16.24;66.99
79577;BME280;69045;48.136;11.386;2023-05-07T00:10:10;95278.88;;;16.25;67.25
79577;BME280;69045;48.136;11.386;2023-05-07T00:12:40;95270.16;;;16.25;67.15
79577;BME280;69045;48.136;11.386;2023-05-07T00:15:10;95275.44;;;16.25;67.23
79577;BME280;69045;48.136;11.386;2023-05-07T00:17:38;95273.06;;;16.23;67.42
79577;BME280;69045;48.136;11.386;2023-05-07T00:20:07;95271.72;;;16.21;67.71
79577;BME280;69045;48.136;11.386;2023-05-07T00:22:38;95265.59;;;16.15;67.08
79577;BME280;69045;48.136;11.386;2023-05-07T00:25:06;95261.84;;;16.11;67.06
79577;BME280;69045;48.136;11.386;2023-05-07T00:27:35;95268.97;;;16.05;67.08
79577;BME280;69045;48.136;11.386;2023-05-07T00:30:04;95259.16;;;16.01;66.78
79577;BME280;69045;48.136;11.386;2023-05-07T00:32:34;95259.16;;;16.01;66.85
79577;BME280;69045;48.136;11.386;2023-05-07T00:35:04;95262.47;;;15.91;67.16
79577;BME280;69045;48.136;11.386;2023-05-07T00:37:32;95263.78;;;15.89;67.29
79577;BME280;69045;48.136;11.386;2023-05-07T00:40:02;95259.31;;;15.62;67.67
79577;BME280;69045;48.136;11.386;2023-05-07T00:42:34;95269.78;;;15.57;68.02
79577;BME280;69045;48.136;11.386;2023-05-07T00:45:03;95268.19;;;15.56;68.13
79577;BME280;69045;48.136;11.386;2023-05-07T00:47:32;95269.00;;;15.56;68.42
79577;BME280;69045;48.136;11.386;2023-05-07T00:50:00;95263.47;;;15.58;68.07
79577;BME280;69045;48.136;11.386;2023-05-07T00:52:29;95262.56;;;15.47;68.18
79577;BME280;69045;48.136;11.386;2023-05-07T00:55:07;95264.41;;;15.47;68.28
79577;BME280;69045;48.136;11.386;2023-05-07T00:57:36;95265.28;;;15.30;68.43
79577;BME280;69045;48.136;11.386;2023-05-07T01:00:07;95272.59;;;15.23;69.10
79577;BME280;69045;48.136;11.386;2023-05-07T01:02:37;95274.25;;;15.29;68.95
79577;BME280;69045;48.136;11.386;2023-05-07T01:05:09;95273.00;;;15.37;68.32
79577;BME280;69045;48.136;11.386;2023-05-07T01:07:40;95269.09;;;15.40;68.77
79577;BME280;69045;48.136;11.386;2023-05-07T01:10:12;95264.84;;;15.39;68.81
79577;BME280;69045;48.136;11.386;2023-05-07T01:12:42;95264.06;;;15.38;68.28
79577;BME280;69045;48.136;11.386;2023-05-07T01:15:11;95261.91;;;15.35;68.50
79577;BME280;69045;48.136;11.386;2023-05-07T01:17:41;95270.69;;;15.41;69.00
79577;BME280;69045;48.136;11.386;2023-05-07T01:20:18;95266.31;;;15.51;69.00
79577;BME280;69045;48.136;11.386;2023-05-07T01:22:51;95265.81;;;15.54;68.77
79577;BME280;69045;48.136;11.386;2023-05-07T01:25:20;95260.53;;;15.54;68.79
79577;BME280;69045;48.136;11.386;2023-05-07T01:27:51;95264.47;;;15.52;68.61
79577;BME280;69045;48.136;11.386;2023-05-07T01:30:24;95259.19;;;15.52;69.32
79577;BME280;69045;48.136;11.386;2023-05-07T01:32:57;95252.88;;;15.53;68.96
79577;BME280;69045;48.136;11.386;2023-05-07T01:35:32;95259.00;;;15.59;69.20
79577;BME280;69045;48.136;11.386;2023-05-07T01:38:05;95253.94;;;15.57;68.93
79577;BME280;69045;48.136;11.386;2023-05-07T01:40:34;95259.19;;;15.52;69.10
79577;BME280;69045;48.136;11.386;2023-05-07T01:43:02;95258.41;;;15.51;69.03
79577;BME280;69045;48.136;11.386;2023-05-07T01:45:34;95246.53;;;15.54;69.46
79577;BME280;69045;48.136;11.386;2023-05-07T01:48:03;95243.34;;;15.52;69.52
79577;BME280;69045;48.136;11.386;2023-05-07T01:50:32;95240.72;;;15.52;69.53
79577;BME280;69045;48.136;11.386;2023-05-07T01:53:02;95241.72;;;15.51;69.45
79577;BME280;69045;48.136;11.386;2023-05-07T01:55:32;95247.00;;;15.51;69.50
79577;BME280;69045;48.136;11.386;2023-05-07T01:58:00;95246.28;;;15.55;69.71
79577;BME280;69045;48.136;11.386;2023-05-07T02:00:28;95248.97;;;15.61;69.92
79577;BME280;69045;48.136;11.386;2023-05-07T02:02:57;95245.53;;;15.60;69.95
79577;BME280;69045;48.136;11.386;2023-05-07T02:05:34;95244.75;;;15.60;69.33
79577;BME280;69045;48.136;11.386;2023-05-07T02:08:10;95252.66;;;15.60;68.75
79577;BME280;69045;48.136;11.386;2023-05-07T02:10:40;95248.66;;;15.57;68.87
79577;BME280;69045;48.136;11.386;2023-05-07T02:13:09;95254.72;;;15.57;68.65
79577;BME280;69045;48.136;11.386;2023-05-07T02:15:37;95256.84;;;15.55;68.60
79577;BME280;69045;48.136;11.386;2023-05-07T02:18:08;95256.56;;;15.52;68.50
79577;BME280;69045;48.136;11.386;2023-05-07T02:20:37;95258.88;;;15.48;69.33
79577;BME280;69045;48.136;11.386;2023-05-07T02:23:05;95254.91;;;15.46;69.59
79577;BME280;69045;48.136;11.386;2023-05-07T02:25:33;95254.09;;;15.45;69.29
79577;BME280;69045;48.136;11.386;2023-05-07T02:28:03;95258.81;;;15.43;69.53
79577;BME280;69045;48.136;11.386;2023-05-07T02:30:57;95252.19;;;15.41;69.93
79577;BME280;69045;48.136;11.386;2023-05-07T02:33:28;95249.03;;;15.39;69.82
79577;BME280;69045;48.136;11.386;2023-05-07T02:36:05;95249.22;;;15.32;70.56
79577;BME280;69045;48.136;11.386;2023-05-07T02:38:36;95252.72;;;15.16;70.94
79577;BME280;69045;48.136;11.386;2023-05-07T02:41:04;95249.78;;;15.12;71.14
79577;BME280;69045;48.136;11.386;2023-05-07T02:43:34;95253.50;;;15.16;71.28
79577;BME280;69045;48.136;11.386;2023-05-07T02:46:03;95258.56;;;15.18;71.25
79577;BME280;69045;48.136;11.386;2023-05-07T02:48:34;95257.25;;;15.20;70.53
79577;BME280;69045;48.136;11.386;2023-05-07T02:51:03;95257.25;;;15.20;70.75
79577;BME280;69045;48.136;11.386;2023-05-07T02:53:33;95249.53;;;15.14;71.27
79577;BME280;69045;48.136;11.386;2023-05-07T02:56:01;95261.06;;;15.08;72.06
79577;BME280;69045;48.136;11.386;2023-05-07T02:58:30;95256.84;;;15.07;72.21
79577;BME280;69045;48.136;11.386;2023-05-07T03:01:01;95255.06;;;15.12;72.06
79577;BME280;69045;48.136;11.386;2023-05-07T03:03:37;95253.66;;;15.05;72.12
79577;BME280;69045;48.136;11.386;2023-05-07T03:06:06;95255.06;;;15.12;70.80
79577;BME280;69045;48.136;11.386;2023-05-07T03:08:34;95246.03;;;15.08;70.76
79577;BME280;69045;48.136;11.386;2023-05-07T03:11:03;95248.19;;;15.11;70.93
79577;BME280;69045;48.136;11.386;2023-05-07T03:13:31;95247.41;;;15.11;70.75
79577;BME280;69045;48.136;11.386;2023-05-07T03:16:01;95248.84;;;15.01;71.37
79577;BME280;69045;48.136;11.386;2023-05-07T03:18:29;95242.84;;;15.06;71.83
79577;BME280;69045;48.136;11.386;2023-05-07T03:20:58;95238.66;;;15.10;71.24
79577;BME280;69045;48.136;11.386;2023-05-07T03:23:27;95240.03;;;15.13;71.28
79577;BME280;69045;48.136;11.386;2023-05-07T03:25:55;95234.75;;;15.13;71.10
79577;BME280;69045;48.136;11.386;2023-05-07T03:28:23;95233.16;;;15.12;71.21
79577;BME280;69045;48.136;11.386;2023-05-07T03:30:56;95238.66;;;15.10;71.51
79577;BME280;69045;48.136;11.386;2023-05-07T03:33:26;95242.72;;;14.96;72.32
79577;BME280;69045;48.136;11.386;2023-05-07T03:35:55;95240.56;;;14.93;72.16
79577;BME280;69045;48.136;11.386;2023-05-07T03:38:25;95243.81;;;15.00;71.69
79577;BME280;69045;48.136;11.386;2023-05-07T03:40:53;95241.19;;;15.00;71.33
79577;BME280;69045;48.136;11.386;2023-05-07T03:43:22;95246.94;;;14.97;71.90
79577;BME280;69045;48.136;11.386;2023-05-07T03:46:00;95254.00;;;14.91;71.77
79577;BME280;69045;48.136;11.386;2023-05-07T03:48:30;95250.50;;;14.86;71.85
79577;BME280;69045;48.136;11.386;2023-05-07T03:50:59;95236.78;;;14.84;71.70
79577;BME280;69045;48.136;11.386;2023-05-07T03:53:31;95253.16;;;14.86;71.60
79577;BME280;69045;48.136;11.386;2023-05-07T03:55:59;95252.09;;;14.87;71.64
79577;BME280;69045;48.136;11.386;2023-05-07T03:58:31;95259.75;;;14.88;71.43
79577;BME280;69045;48.136;11.386;2023-05-07T04:01:04;95267.19;;;14.91;71.14
79577;BME280;69045;48.136;11.386;2023-05-07T04:03:36;95262.72;;;14.92;71.37
79577;BME280;69045;48.136;11.386;2023-05-07T04:06:04;95263.78;;;14.91;71.41
79577;BME280;69045;48.136;11.386;2023-05-07T04:08:34;95260.09;;;14.92;70.96
79577;BME280;69045;48.136;11.386;2023-05-07T04:11:04;95268.53;;;14.94;70.60
79577;BME280;69045;48.136;11.386;2023-05-07T04:13:34;95262.53;;;14.98;70.96
79577;BME280;69045;48.136;11.386;2023-05-07T04:16:05;95265.97;;;14.99;70.98
79577;BME280;69045;48.136;11.386;2023-05-07T04:18:37;95279.72;;;15.01;70.87
79577;BME280;69045;48.136;11.386;2023-05-07T04:21:05;95269.69;;;15.03;70.69
79577;BME280;69045;48.136;11.386;2023-05-07T04:23:37;95276.28;;;15.00;70.31
79577;BME280;69045;48.136;11.386;2023-05-07T04:26:09;95279.41;;;14.97;70.38
79577;BME280;69045;48.136;11.386;2023-05-07T04:28:41;95279.41;;;14.97;70.41
79577;BME280;69045;48.136;11.386;2023-05-07T04:31:10;95283.41;;;15.00;70.81
79577;BME280;69045;48.136;11.386;2023-05-07T04:33:41;95285.53;;;15.03;70.06
79577;BME280;69045;48.136;11.386;2023-05-07T04:36:12;95283.47;;;15.05;70.47
79577;BME280;69045;48.136;11.386;2023-05-07T04:38:49;95283.47;;;15.05;69.81
79577;BME280;69045;48.136;11.386;2023-05-07T04:41:19;95288.00;;;15.10;70.68
79577;BME280;69045;48.136;11.386;2023-05-07T04:43:47;95276.72;;;15.14;69.85
79577;BME280;69045;48.136;11.386;2023-05-07T04:46:17;95280.47;;;15.18;69.68
79577;BME280;69045;48.136;11.386;2023-05-07T04:48:48;95275.22;;;15.23;69.73
79577;BME280;69045;48.136;11.386;2023-05-07T04:51:16;95273.69;;;15.27;69.98
79577;BME280;69045;48.136;11.386;2023-05-07T04:53:44;95280.09;;;15.32;70.06
79577;BME280;69045;48.136;11.386;2023-05-07T04:56:13;95284.78;;;15.29;69.48
79577;BME280;69045;48.136;11.386;2023-05-07T04:58:43;95286.44;;;15.36;69.08
79577;BME280;69045;48.136;11.386;2023-05-07T05:01:12;95287.31;;;15.41;68.52
79577;BME280;69045;48.136;11.386;2023-05-07T05:03:41;95289.22;;;15.46;68.92
79577;BME280;69045;48.136;11.386;2023-05-07T05:06:11;95293.25;;;15.53;68.70
79577;BME280;69045;48.136;11.386;2023-05-07T05:08:39;95280.91;;;15.59;68.48
79577;BME280;69045;48.136;11.386;2023-05-07T05:11:08;95280.44;;;15.62;68.68
79577;BME280;69045;48.136;11.386;2023-05-07T05:13:37;95278.09;;;15.66;69.17
79577;BME280;69045;48.136;11.386;2023-05-07T05:16:11;95281.34;;;15.73;69.33
79577;BME280;69045;48.136;11.386;2023-05-07T05:18:40;95281.34;;;15.73;68.92
79577;BME280;69045;48.136;11.386;2023-05-07T05:21:11;95281.09;;;15.74;69.95
79577;BME280;69045;48.136;11.386;2023-05-07T05:23:41;95279.13;;;15.92;69.29
79577;BME280;69045;48.136;11.386;2023-05-07T05:26:11;95278.75;;;16.10;68.56
79577;BME280;69045;48.136;11.386;2023-05-07T05:28:40;95286.63;;;16.00;69.00
79577;BME280;69045;48.136;11.386;2023-05-07T05:31:08;95283.66;;;15.96;70.24
79577;BME280;69045;48.136;11.386;2023-05-07T05:33:36;95291.78;;;16.17;69.51
79577;BME280;69045;48.136;11.386;2023-05-07T05:36:05;95294.84;;;16.35;69.16
79577;BME280;69045;48.136;11.386;2023-05-07T05:38:38;95280.44;;;16.58;68.82
79577;BME280;69045;48.136;11.386;2023-05-07T05:41:06;95281.94;;;16.81;67.72
79577;BME280;69045;48.136;11.386;2023-05-07T05:43:35;95287.63;;;17.05;67.42
79577;BME280;69045;48.136;11.386;2023-05-07T05:46:03;95278.47;;;17.33;66.58
79577;BME280;69045;48.136;11.386;2023-05-07T05:48:33;95284.31;;;17.40;66.10
79577;BME280;69045;48.136;11.386;2023-05-07T05:51:03;95289.16;;;17.59;66.55
79577;BME280;69045;48.136;11.386;2023-05-07T05:53:31;95287.63;;;17.78;66.53
79577;BME280;69045;48.136;11.386;2023-05-07T05:56:04;95293.75;;;17.99;65.96
79577;BME280;69045;48.136;11.386;2023-05-07T05:58:33;95289.53;;;18.18;65.93
79577;BME280;69045;48.136;11.386;2023-05-07T06:01:05;95286.91;;;18.44;65.20
79577;BME280;69045;48.136;11.386;2023-05-07T06:03:35;95293.25;;;18.63;63.53
79577;BME280;69045;48.136;11.386;2023-05-07T06:06:08;95283.94;;;18.76;63.16
79577;BME280;69045;48.136;11.386;2023-05-07T06:08:37;95290.56;;;18.89;62.89
79577;BME280;69045;48.136;11.386;2023-05-07T06:11:07;95288.69;;;18.94;63.05
79577;BME280;69045;48.136;11.386;2023-05-07T06:13:37;95286.28;;;19.03;62.72
79577;BME280;69045;48.136;11.386;2023-05-07T06:16:06;95285.47;;;19.13;62.34
79577;BME280;69045;48.136;11.386;2023-05-07T06:18:35;95280.66;;;19.25;61.98
79577;BME280;69045;48.136;11.386;2023-05-07T06:21:04;95291.69;;;19.47;62.20
79577;BME280;69045;48.136;11.386;2023-05-07T06:23:34;95276.19;;;19.70;62.24
79577;BME280;69045;48.136;11.386;2023-05-07T06:26:03;95283.56;;;19.78;62.17
79577;BME280;69045;48.136;11.386;2023-05-07T06:28:38;95289.78;;;20.07;60.85
79577;BME280;69045;48.136;11.386;2023-05-07T06:31:14;95291.66;;;20.46;58.45
79577;BME280;69045;48.136;11.386;2023-05-07T06:33:48;95293.06;;;20.67;57.20
79577;BME280;69045;48.136;11.386;2023-05-07T06:36:17;95296.03;;;20.90;57.75
79577;BME280;69045;48.136;11.386;2023-05-07T06:38:45;95290.53;;;21.05;55.60
79577;BME280;69045;48.136;11.386;2023-05-07T06:41:14;95297.44;;;21.06;55.62
79577;BME280;69045;48.136;11.386;2023-05-07T06:43:44;95302.91;;;21.20;55.48
79577;BME280;69045;48.136;11.386;2023-05-07T06:46:25;95298.88;;;21.46;54.30
79577;BME280;69045;48.136;11.386;2023-05-07T06:48:53;95299.72;;;21.66;54.21
79577;BME280;69045;48.136;11.386;2023-05-07T06:51:23;95304.84;;;21.81;54.15
79577;BME280;69045;48.136;11.386;2023-05-07T06:53:53;95296.47;;;21.88;53.45
79577;BME280;69045;48.136;11.386;2023-05-07T06:56:21;95303.59;;;22.16;53.31
79577;BME280;69045;48.136;11.386;2023-05-07T06:58:51;95301.44;;;22.51;53.39
79577;BME280;69045;48.136;11.386;2023-05-07T07:01:20;95308.19;;;22.95;52.89
79577;BME280;69045;48.136;11.386;2023-05-07T07:03:48;95302.38;;;23.34;50.59
79577;BME280;69045;48.136;11.386;2023-05-07T07:06:19;95292.88;;;23.69;49.74
79577;BME280;69045;48.136;11.386;2023-05-07T07:08:48;95300.66;;;23.93;47.61
79577;BME280;69045;48.136;11.386;2023-05-07T07:11:17;95304.16;;;24.16;48.17
79577;BME280;69045;48.136;11.386;2023-05-07T07:13:45;95304.41;;;24.28;46.78
79577;BME280;69045;48.136;11.386;2023-05-07T07:16:15;95296.97;;;24.61;46.30
79577;BME280;69045;48.136;11.386;2023-05-07T07:18:45;95299.28;;;24.85;46.29
79577;BME280;69045;48.136;11.386;2023-05-07T07:21:13;95303.56;;;25.09;46.49
79577;BME280;69045;48.136;11.386;2023-05-07T07:23:42;95297.19;;;25.36;44.09
79577;BME280;69045;48.136;11.386;2023-05-07T07:26:10;95298.78;;;25.05;43.25
79577;BME280;69045;48.136;11.386;2023-05-07T07:28:43;95297.41;;;25.08;43.66
79577;BME280;69045;48.136;11.386;2023-05-07T07:31:17;95299.38;;;24.94;43.26
79577;BME280;69045;48.136;11.386;2023-05-07T07:33:46;95306.06;;;25.05;43.96
79577;BME280;69045;48.136;11.386;2023-05-07T07:36:19;95306.84;;;25.05;43.30
79577;BME280;69045;48.136;11.386;2023-05-07T07:38:49;95309.88;;;25.13;45.31
79577;BME280;69045;48.136;11.386;2023-05-07T07:41:17;95309.06;;;25.43;42.95
79577;BME280;69045;48.136;11.386;2023-05-07T07:43:47;95315.19;;;25.75;42.87
79577;BME280;69045;48.136;11.386;2023-05-07T07:46:18;95307.94;;;26.01;42.03
79577;BME280;69045;48.136;11.386;2023-05-07T07:48:47;95310.94;;;26.26;41.15
79577;BME280;69045;48.136;11.386;2023-05-07T07:51:15;95317.78;;;26.49;40.68
79577;BME280;69045;48.136;11.386;2023-05-07T07:53:44;95310.78;;;26.65;40.89
79577;BME280;69045;48.136;11.386;2023-05-07T07:56:12;95310.41;;;26.93;40.96
79577;BME280;69045;48.136;11.386;2023-05-07T07:58:41;95312.41;;;27.22;39.23
79577;BME280;69045;48.136;11.386;2023-05-07T08:01:09;95319.31;;;27.40;38.30
79577;BME280;69045;48.136;11.386;2023-05-07T08:03:41;95311.06;;;27.45;37.45
79577;BME280;69045;48.136;11.386;2023-05-07T08:06:09;95312.97;;;27.45;37.59
79577;BME280;69045;48.136;11.386;2023-05-07T08:08:38;95313.47;;;27.38;37.54
79577;BME280;69045;48.136;11.386;2023-05-07T08:11:06;95312.78;;;27.12;37.89
79577;BME280;69045;48.136;11.386;2023-05-07T08:13:36;95316.75;;;27.06;38.34
79577;BME280;69045;48.136;11.386;2023-05-07T08:16:04;95321.34;;;27.05;38.49
79577;BME280;69045;48.136;11.386;2023-05-07T08:18:34;95317.91;;;27.34;38.02
79577;BME280;69045;48.136;11.386;2023-05-07T08:21:04;95318.91;;;27.59;38.33
79577;BME280;69045;48.136;11.386;2023-05-07T08:23:32;95327.59;;;27.94;37.70
79577;BME280;69045;48.136;11.386;2023-05-07T08:26:02;95324.00;;;28.11;36.50
79577;BME280;69045;48.136;11.386;2023-05-07T08:28:31;95315.72;;;28.16;37.12
79577;BME280;69045;48.136;11.386;2023-05-07T08:30:59;95318.56;;;28.20;36.06
79577;BME280;69045;48.136;11.386;2023-05-07T08:33:32;95312.25;;;28.37;36.89
79577;BME280;69045;48.136;11.386;2023-05-07T08:36:01;95320.59;;;28.44;35.42
79577;BME280;69045;48.136;11.386;2023-05-07T08:38:30;95322.41;;;28.73;37.02
79577;BME280;69045;48.136;11.386;2023-05-07T08:40:59;95323.41;;;28.68;34.37
79577;BME280;69045;48.136;11.386;2023-05-07T08:43:32;95318.81;;;28.27;34.72
79577;BME280;69045;48.136;11.386;2023-05-07T08:46:02;95328.00;;;28.05;35.71
79577;BME280;69045;48.136;11.386;2023-05-07T08:48:36;95323.34;;;28.14;36.03
79577;BME280;69045;48.136;11.386;2023-05-07T08:51:13;95320.59;;;28.44;37.02
79577;BME280;69045;48.136;11.386;2023-05-07T08:53:43;95317.38;;;28.83;36.07
79577;BME280;69045;48.136;11.386;2023-05-07T08:56:16;95319.75;;;29.30;35.54
79577;BME280;69045;48.136;11.386;2023-05-07T08:58:49;95320.94;;;29.54;34.98
79577;BME280;69045;48.136;11.386;2023-05-07T09:01:18;95320.91;;;29.78;34.35
79577;BME280;69045;48.136;11.386;2023-05-07T09:03:52;95325.53;;;29.78;33.91
79577;BME280;69045;48.136;11.386;2023-05-07T09:06:22;95324.03;;;29.92;35.08
79577;BME280;69045;48.136;11.386;2023-05-07T09:08:54;95315.25;;;30.08;33.84
79577;BME280;69045;48.136;11.386;2023-05-07T09:11:27;95310.50;;;30.29;33.70
79577;BME280;69045;48.136;11.386;2023-05-07T09:13:58;95325.09;;;30.40;33.49
79577;BME280;69045;48.136;11.386;2023-05-07T09:16:32;95314.44;;;30.60;32.96
79577;BME280;69045;48.136;11.386;2023-05-07T09:19:01;95315.19;;;30.44;32.36
79577;BME280;69045;48.136;11.386;2023-05-07T09:21:30;95315.75;;;30.38;33.72
79577;BME280;69045;48.136;11.386;2023-05-07T09:24:02;95312.91;;;30.47;32.55
79577;BME280;69045;48.136;11.386;2023-05-07T09:26:37;95318.31;;;30.47;33.20
79577;BME280;69045;48.136;11.386;2023-05-07T09:29:07;95318.59;;;30.69;32.15
79577;BME280;69045;48.136;11.386;2023-05-07T09:31:36;95310.03;;;30.67;32.72
79577;BME280;69045;48.136;11.386;2023-05-07T09:34:07;95316.13;;;30.64;31.79
79577;BME280;69045;48.136;11.386;2023-05-07T09:36:39;95313.59;;;30.43;30.51
79577;BME280;69045;48.136;11.386;2023-05-07T09:39:08;95312.41;;;30.29;30.54
79577;BME280;69045;48.136;11.386;2023-05-07T09:41:43;95313.72;;;29.82;30.59
79577;BME280;69045;48.136;11.386;2023-05-07T09:44:19;95311.59;;;29.76;32.07
79577;BME280;69045;48.136;11.386;2023-05-07T09:46:53;95310.78;;;29.75;33.13
79577;BME280;69045;48.136;11.386;2023-05-07T09:49:33;95317.19;;;29.95;30.71
79577;BME280;69045;48.136;11.386;2023-05-07T09:52:06;95311.16;;;29.61;29.99
79577;BME280;69045;48.136;11.386;2023-05-07T09:54:41;95315.50;;;29.42;32.65
79577;BME280;69045;48.136;11.386;2023-05-07T09:57:14;95309.88;;;29.34;31.40
79577;BME280;69045;48.136;11.386;2023-05-07T09:59:47;95314.72;;;29.53;32.88
79577;BME280;69045;48.136;11.386;2023-05-07T10:02:19;95312.81;;;29.78;32.71
79577;BME280;69045;48.136;11.386;2023-05-07T10:04:52;95310.44;;;29.89;31.43
79577;BME280;69045;48.136;11.386;2023-05-07T10:07:26;95314.38;;;29.79;32.10
79577;BME280;69045;48.136;11.386;2023-05-07T10:10:00;95317.22;;;29.71;32.33
79577;BME280;69045;48.136;11.386;2023-05-07T10:12:35;95315.19;;;29.68;32.58
79577;BME280;69045;48.136;11.386;2023-05-07T10:15:12;95320.69;;;29.47;33.00
79577;BME280;69045;48.136;11.386;2023-05-07T10:17:45;95319.56;;;29.60;32.20
79577;BME280;69045;48.136;11.386;2023-05-07T10:20:15;95322.16;;;29.81;31.67
79577;BME280;69045;48.136;11.386;2023-05-07T10:22:48;95316.84;;;29.84;32.47
79577;BME280;69045;48.136;11.386;2023-05-07T10:25:28;95319.09;;;29.95;32.65
79577;BME280;69045;48.136;11.386;2023-05-07T10:28:06;95310.88;;;30.03;32.02
79577;BME280;69045;48.136;11.386;2023-05-07T10:30:48;95308.84;;;30.12;32.08
79577;BME280;69045;48.136;11.386;2023-05-07T10:33:27;95312.63;;;30.36;31.13
79577;BME280;69045;48.136;11.386;2023-05-07T10:36:00;95313.84;;;30.38;31.15
79577;BME280;69045;48.136;11.386;2023-05-07T10:38:32;95307.88;;;30.61;31.20
79577;BME280;69045;48.136;11.386;2023-05-07T10:41:02;95313.84;;;30.66;30.64
79577;BME280;69045;48.136;11.386;2023-05-07T10:43:39;95314.09;;;30.61;30.54
79577;BME280;69045;48.136;11.386;2023-05-07T10:46:11;95312.22;;;30.50;30.34
79577;BME280;69045;48.136;11.386;2023-05-07T10:49:11;95310.81;;;30.28;31.62
79577;BME280;69045;48.136;11.386;2023-05-07T10:52:11;95307.94;;;30.08;30.67
79577;BME280;69045;48.136;11.386;2023-05-07T10:55:21;95311.19;;;30.14;31.33
79577;BME280;69045;48.136;11.386;2023-05-07T10:58:27;95305.34;;;30.12;32.13
79577;BME280;69045;48.136;11.386;2023-05-07T11:01:50;95305.81;;;30.02;31.94
79577;BME280;69045;48.136;11.386;2023-05-07T11:04:27;95309.41;;;30.18;31.55
79577;BME280;69045;48.136;11.386;2023-05-07T11:07:24;95311.16;;;30.26;29.97
79577;BME280;69045;48.136;11.386;2023-05-07T11:10:04;95313.63;;;30.31;30.18
79577;BME280;69045;48.136;11.386;2023-05-07T11:13:02;95306.00;;;30.21;31.16
79577;BME280;69045;48.136;11.386;2023-05-07T11:15:43;95299.03;;;30.08;28.94
79577;BME280;69045;48.136;11.386;2023-05-07T11:18:50;95298.81;;;30.01;31.44
79577;BME280;69045;48.136;11.386;2023-05-07T11:21:35;95306.31;;;29.55;31.93
79577;BME280;69045;48.136;11.386;2023-05-07T11:24:14;95297.97;;;29.60;31.33
79577;BME280;69045;48.136;11.386;2023-05-07T11:26:58;95294.59;;;29.51;32.22
79577;BME280;69045;48.136;11.386;2023-05-07T11:29:27;95293.91;;;29.42;32.65
79577;BME280;69045;48.136;11.386;2023-05-07T11:32:03;95297.25;;;29.38;32.83
79577;BME280;69045;48.136;11.386;2023-05-07T11:34:44;95292.81;;;29.55;31.91
79577;BME280;69045;48.136;11.386;2023-05-07T11:37:16;95285.03;;;29.66;32.49
79577;BME280;69045;48.136;11.386;2023-05-07T11:40:03;95288.72;;;29.85;32.39
79577;BME280;69045;48.136;11.386;2023-05-07T11:42:50;95285.06;;;30.06;32.13
79577;BME280;69045;48.136;11.386;2023-05-07T11:45:23;95279.13;;;30.12;32.62
79577;BME280;69045;48.136;11.386;2023-05-07T11:47:52;95280.69;;;30.13;32.09
79577;BME280;69045;48.136;11.386;2023-05-07T11:50:21;95279.13;;;30.12;31.94
79577;BME280;69045;48.136;11.386;2023-05-07T11:52:50;95283.63;;;30.08;31.64
79577;BME280;69045;48.136;11.386;2023-05-07T11:55:19;95278.22;;;29.96;31.44
79577;BME280;69045;48.136;11.386;2023-05-07T11:57:49;95290.06;;;29.79;32.26
79577;BME280;69045;48.136;11.386;2023-05-07T12:00:19;95289.06;;;29.72;31.76
79577;BME280;69045;48.136;11.386;2023-05-07T12:02:47;95284.56;;;29.63;32.20
79577;BME280;69045;48.136;11.386;2023-05-07T12:05:16;95275.69;;;29.63;32.92
79577;BME280;69045;48.136;11.386;2023-05-07T12:07:45;95280.09;;;29.68;32.27
79577;BME280;69045;48.136;11.386;2023-05-07T12:10:14;95273.75;;;29.76;32.74
79577;BME280;69045;48.136;11.386;2023-05-07T12:12:46;95276.59;;;29.67;32.93
79577;BME280;69045;48.136;11.386;2023-05-07T12:15:15;95271.50;;;29.66;33.06
79577;BME280;69045;48.136;11.386;2023-05-07T12:17:44;95267.81;;;29.58;32.63
79577;BME280;69045;48.136;11.386;2023-05-07T12:20:12;95261.28;;;29.59;32.67
79577;BME280;69045;48.136;11.386;2023-05-07T12:22:42;95261.50;;;29.42;33.30
79577;BME280;69045;48.136;11.386;2023-05-07T12:25:11;95273.31;;;29.37;33.57
79577;BME280;69045;48.136;11.386;2023-05-07T12:27:42;95265.75;;;29.18;33.08
79577;BME280;69045;48.136;11.386;2023-05-07T12:30:12;95259.00;;;29.00;35.01
79577;BME280;69045;48.136;11.386;2023-05-07T12:32:40;95253.94;;;29.10;34.23
79577;BME280;69045;48.136;11.386;2023-05-07T12:35:08;95260.69;;;29.17;33.86
79577;BME280;69045;48.136;11.386;2023-05-07T12:37:37;95250.47;;;29.22;33.35
79577;BME280;69045;48.136;11.386;2023-05-07T12:40:08;95249.56;;;29.18;33.27
79577;BME280;69045;48.136;11.386;2023-05-07T12:42:40;95249.34;;;29.11;32.74
79577;BME280;69045;48.136;11.386;2023-05-07T12:45:09;95249.09;;;29.04;33.36
79577;BME280;69045;48.136;11.386;2023-05-07T12:47:38;95238.91;;;28.76;33.70
79577;BME280;69045;48.136;11.386;2023-05-07T12:50:07;95240.94;;;28.67;33.78
79577;BME280;69045;48.136;11.386;2023-05-07T12:52:35;95244.09;;;28.81;33.21
79577;BME280;69045;48.136;11.386;2023-05-07T12:55:08;95242.28;;;28.86;33.84
79577;BME280;69045;48.136;11.386;2023-05-07T12:57:41;95244.22;;;28.73;33.67
79577;BME280;69045;48.136;11.386;2023-05-07T13:00:11;95253.25;;;28.56;33.79
79577;BME280;69045;48.136;11.386;2023-05-07T13:02:41;95249.44;;;28.57;34.04
79577;BME280;69045;48.136;11.386;2023-05-07T13:05:11;95252.47;;;28.55;33.62
79577;BME280;69045;48.136;11.386;2023-05-07T13:07:40;95252.56;;;28.47;33.38
79577;BME280;69045;48.136;11.386;2023-05-07T13:10:09;95250.66;;;28.47;33.40
79577;BME280;69045;48.136;11.386;2023-05-07T13:12:38;95247.69;;;28.40;33.36